Conceicao das Alagoas, Brazil
Current Conditions -  °F | °C
As of 9:00 PM on Saturday 25 Oct 2014 (Local Time) from SBUR Reporting Station
Haze Haze  
Wind Chill: 66°   Ceiling: 300
Heat Index: 66°   Visibility: 2.5mi
Dew Point: 66°   Wind: 7mph
Humidity: 100%   Direction: 140°SE
Pressure: 30.03"   Gusts: NA
Location:  19.91°S, 48.39°W
Report Text: SBUR 252300Z 14006KT 4000 BR OVC003 19/19 Q1017
Loading
Personal Weather Stations






























Interactive Weather Map
Tropical Storm Tracking
New forecast layout! Learn more

10-Day Weather Forecast

Advertisements
Track Severe Weather on mobile